5MD9 weather

Suburban Heliport
Bethesda, Maryland, United States

Public forecast

Using degrees Fahrenheit for public forecast. Weather courtesy of forecast.io.

METAR (pilot weather report)

Closest report is College Park Airport, 8.8 nm (16.3 km) E. Retrieved 2019/05/25 04:43 UTC (1 minute ago):

KCGS 250443Z AUTO 00000KT 10SM CLR 17/13 A3010 RMK AO1 T01650127

TAF (pilot weather forecast)

Forecast is more than 12 hours old.

Closest forecast is Ronald Reagan Washington National Airport, 9.3 nm (17.3 km) SSE. Retrieved 2019/05/24 00:22 UTC (1 day ago):

TAF KDCA 242320Z 2500/2606 34008KT P6SM SCT250 FM251600 16008KT P6SM SCT060 FM251900 16010G18KT P6SM SCT060 FM260300 17007KT P6SM SCT250